sensor_id;sensor_type;location;lat;lon;timestamp;temperature;humidity
16625;DHT22;8426;48.496;9.098;2023-05-02T00:00:58;6.90;99.90
16625;DHT22;8426;48.496;9.098;2023-05-02T00:06:06;6.90;99.90
16625;DHT22;8426;48.496;9.098;2023-05-02T00:11:09;6.80;99.90
16625;DHT22;8426;48.496;9.098;2023-05-02T00:16:14;6.70;99.90
16625;DHT22;8426;48.496;9.098;2023-05-02T00:21:18;6.70;99.90
16625;DHT22;8426;48.496;9.098;2023-05-02T00:26:21;6.70;99.90
16625;DHT22;8426;48.496;9.098;2023-05-02T00:31:26;6.70;99.90
16625;DHT22;8426;48.496;9.098;2023-05-02T00:36:32;6.80;99.90
16625;DHT22;8426;48.496;9.098;2023-05-02T00:41:36;6.90;99.90
16625;DHT22;8426;48.496;9.098;2023-05-02T00:46:40;6.90;99.90
16625;DHT22;8426;48.496;9.098;2023-05-02T00:51:44;7.10;99.90
16625;DHT22;8426;48.496;9.098;2023-05-02T00:56:53;7.20;99.90
16625;DHT22;8426;48.496;9.098;2023-05-02T01:02:07;7.30;99.90
16625;DHT22;8426;48.496;9.098;2023-05-02T01:07:22;7.30;99.90
16625;DHT22;8426;48.496;9.098;2023-05-02T01:12:41;7.50;99.90
16625;DHT22;8426;48.496;9.098;2023-05-02T01:17:47;7.50;99.90
16625;DHT22;8426;48.496;9.098;2023-05-02T01:23:02;7.60;99.90
16625;DHT22;8426;48.496;9.098;2023-05-02T01:28:15;7.70;99.90
16625;DHT22;8426;48.496;9.098;2023-05-02T01:33:24;7.70;99.90
16625;DHT22;8426;48.496;9.098;2023-05-02T01:38:33;7.70;99.90
16625;DHT22;8426;48.496;9.098;2023-05-02T01:43:38;7.60;99.90
16625;DHT22;8426;48.496;9.098;2023-05-02T01:48:45;7.50;99.90
16625;DHT22;8426;48.496;9.098;2023-05-02T01:53:56;7.40;99.90
16625;DHT22;8426;48.496;9.098;2023-05-02T01:59:05;7.30;99.90
16625;DHT22;8426;48.496;9.098;2023-05-02T02:04:13;7.00;99.90
16625;DHT22;8426;48.496;9.098;2023-05-02T02:09:20;6.80;99.90
16625;DHT22;8426;48.496;9.098;2023-05-02T02:14:33;6.60;99.90
16625;DHT22;8426;48.496;9.098;2023-05-02T02:19:40;6.40;99.90
16625;DHT22;8426;48.496;9.098;2023-05-02T02:24:46;6.20;99.90
16625;DHT22;8426;48.496;9.098;2023-05-02T02:29:52;6.10;99.90
16625;DHT22;8426;48.496;9.098;2023-05-02T02:34:59;6.20;99.90
16625;DHT22;8426;48.496;9.098;2023-05-02T02:40:14;6.30;99.90
16625;DHT22;8426;48.496;9.098;2023-05-02T02:45:26;6.50;99.90
16625;DHT22;8426;48.496;9.098;2023-05-02T02:50:42;6.50;99.90
16625;DHT22;8426;48.496;9.098;2023-05-02T02:55:54;6.30;99.90
16625;DHT22;8426;48.496;9.098;2023-05-02T03:01:02;6.20;99.90
16625;DHT22;8426;48.496;9.098;2023-05-02T03:06:10;6.00;99.90
16625;DHT22;8426;48.496;9.098;2023-05-02T03:11:14;6.00;99.90
16625;DHT22;8426;48.496;9.098;2023-05-02T03:16:36;5.90;99.90
16625;DHT22;8426;48.496;9.098;2023-05-02T03:21:45;6.00;99.90
16625;DHT22;8426;48.496;9.098;2023-05-02T03:26:49;6.00;99.90
16625;DHT22;8426;48.496;9.098;2023-05-02T03:31:52;6.00;99.90
16625;DHT22;8426;48.496;9.098;2023-05-02T03:36:57;6.10;99.90
16625;DHT22;8426;48.496;9.098;2023-05-02T03:42:00;6.30;99.90
16625;DHT22;8426;48.496;9.098;2023-05-02T03:47:05;6.60;99.90
16625;DHT22;8426;48.496;9.098;2023-05-02T03:52:13;6.80;99.90
16625;DHT22;8426;48.496;9.098;2023-05-02T03:57:17;6.90;99.90
16625;DHT22;8426;48.496;9.098;2023-05-02T04:02:20;7.10;99.90
16625;DHT22;8426;48.496;9.098;2023-05-02T04:07:27;7.20;99.90
16625;DHT22;8426;48.496;9.098;2023-05-02T04:12:32;7.20;99.90
16625;DHT22;8426;48.496;9.098;2023-05-02T04:17:36;7.30;99.90
16625;DHT22;8426;48.496;9.098;2023-05-02T04:22:43;7.40;99.90
16625;DHT22;8426;48.496;9.098;2023-05-02T04:27:51;7.40;99.90
16625;DHT22;8426;48.496;9.098;2023-05-02T04:32:58;7.50;99.90
16625;DHT22;8426;48.496;9.098;2023-05-02T04:38:09;7.50;99.90
16625;DHT22;8426;48.496;9.098;2023-05-02T04:43:33;7.60;99.90
16625;DHT22;8426;48.496;9.098;2023-05-02T04:48:48;7.60;99.90
16625;DHT22;8426;48.496;9.098;2023-05-02T04:53:55;7.60;99.90
16625;DHT22;8426;48.496;9.098;2023-05-02T04:58:59;7.70;99.90
16625;DHT22;8426;48.496;9.098;2023-05-02T05:04:06;7.80;99.90
16625;DHT22;8426;48.496;9.098;2023-05-02T05:09:14;7.90;99.90
16625;DHT22;8426;48.496;9.098;2023-05-02T05:14:24;7.90;99.90
16625;DHT22;8426;48.496;9.098;2023-05-02T05:19:28;7.90;99.90
16625;DHT22;8426;48.496;9.098;2023-05-02T05:24:35;8.00;99.90
16625;DHT22;8426;48.496;9.098;2023-05-02T05:29:43;8.10;99.90
16625;DHT22;8426;48.496;9.098;2023-05-02T05:34:50;8.20;99.90
16625;DHT22;8426;48.496;9.098;2023-05-02T05:39:56;8.40;99.90
16625;DHT22;8426;48.496;9.098;2023-05-02T05:45:00;8.60;99.90
16625;DHT22;8426;48.496;9.098;2023-05-02T05:50:07;8.80;99.90
16625;DHT22;8426;48.496;9.098;2023-05-02T05:55:15;9.10;99.90
16625;DHT22;8426;48.496;9.098;2023-05-02T06:00:18;9.30;99.90
16625;DHT22;8426;48.496;9.098;2023-05-02T06:05:46;9.60;99.90
16625;DHT22;8426;48.496;9.098;2023-05-02T06:10:53;9.80;99.90
16625;DHT22;8426;48.496;9.098;2023-05-02T06:16:00;9.90;99.90
16625;DHT22;8426;48.496;9.098;2023-05-02T06:21:09;10.00;99.90
16625;DHT22;8426;48.496;9.098;2023-05-02T06:26:16;10.00;99.90
16625;DHT22;8426;48.496;9.098;2023-05-02T06:31:23;9.80;99.90
16625;DHT22;8426;48.496;9.098;2023-05-02T06:36:31;9.70;99.90
16625;DHT22;8426;48.496;9.098;2023-05-02T06:41:40;9.50;99.90
16625;DHT22;8426;48.496;9.098;2023-05-02T06:46:44;9.50;99.90
16625;DHT22;8426;48.496;9.098;2023-05-02T06:51:49;9.70;99.90
16625;DHT22;8426;48.496;9.098;2023-05-02T06:56:56;9.90;99.90
16625;DHT22;8426;48.496;9.098;2023-05-02T07:01:59;10.30;99.90
16625;DHT22;8426;48.496;9.098;2023-05-02T07:07:06;10.80;99.90
16625;DHT22;8426;48.496;9.098;2023-05-02T07:12:11;11.10;99.90
16625;DHT22;8426;48.496;9.098;2023-05-02T07:17:15;11.50;99.90
16625;DHT22;8426;48.496;9.098;2023-05-02T07:22:23;12.00;99.90
16625;DHT22;8426;48.496;9.098;2023-05-02T07:27:45;12.70;99.90
16625;DHT22;8426;48.496;9.098;2023-05-02T07:32:52;13.00;99.90
16625;DHT22;8426;48.496;9.098;2023-05-02T07:37:56;13.10;99.90
16625;DHT22;8426;48.496;9.098;2023-05-02T07:43:03;13.00;99.90
16625;DHT22;8426;48.496;9.098;2023-05-02T07:48:07;13.00;99.90
16625;DHT22;8426;48.496;9.098;2023-05-02T07:53:14;13.00;99.90
16625;DHT22;8426;48.496;9.098;2023-05-02T07:58:21;13.10;99.90
16625;DHT22;8426;48.496;9.098;2023-05-02T08:03:24;13.20;99.90
16625;DHT22;8426;48.496;9.098;2023-05-02T08:08:29;13.20;99.90
16625;DHT22;8426;48.496;9.098;2023-05-02T08:13:38;13.60;99.90
16625;DHT22;8426;48.496;9.098;2023-05-02T08:18:43;13.40;99.90
16625;DHT22;8426;48.496;9.098;2023-05-02T08:23:47;13.40;99.90
16625;DHT22;8426;48.496;9.098;2023-05-02T08:28:52;13.40;99.90
16625;DHT22;8426;48.496;9.098;2023-05-02T08:33:57;13.40;99.90
16625;DHT22;8426;48.496;9.098;2023-05-02T08:39:03;13.40;99.90
16625;DHT22;8426;48.496;9.098;2023-05-02T08:44:11;13.40;99.90
16625;DHT22;8426;48.496;9.098;2023-05-02T08:49:17;13.50;99.90
16625;DHT22;8426;48.496;9.098;2023-05-02T08:54:25;13.90;99.90
16625;DHT22;8426;48.496;9.098;2023-05-02T08:59:36;13.70;99.90
16625;DHT22;8426;48.496;9.098;2023-05-02T09:04:42;14.10;99.90
16625;DHT22;8426;48.496;9.098;2023-05-02T09:10:00;14.10;99.90
16625;DHT22;8426;48.496;9.098;2023-05-02T09:15:12;14.60;99.90
16625;DHT22;8426;48.496;9.098;2023-05-02T09:20:22;14.70;99.90
16625;DHT22;8426;48.496;9.098;2023-05-02T09:25:35;15.40;99.90
16625;DHT22;8426;48.496;9.098;2023-05-02T09:30:41;15.40;99.90
16625;DHT22;8426;48.496;9.098;2023-05-02T09:35:53;14.50;99.90
16625;DHT22;8426;48.496;9.098;2023-05-02T09:40:58;14.70;99.90
16625;DHT22;8426;48.496;9.098;2023-05-02T09:46:08;14.90;99.90
16625;DHT22;8426;48.496;9.098;2023-05-02T09:51:16;15.60;99.90
16625;DHT22;8426;48.496;9.098;2023-05-02T09:56:24;15.90;99.90
16625;DHT22;8426;48.496;9.098;2023-05-02T10:01:31;15.90;99.90
16625;DHT22;8426;48.496;9.098;2023-05-02T10:06:35;17.10;99.90
16625;DHT22;8426;48.496;9.098;2023-05-02T10:11:41;18.10;99.90
16625;DHT22;8426;48.496;9.098;2023-05-02T10:16:59;19.10;99.90
16625;DHT22;8426;48.496;9.098;2023-05-02T10:22:07;20.80;99.90
16625;DHT22;8426;48.496;9.098;2023-05-02T10:27:15;20.40;99.90
16625;DHT22;8426;48.496;9.098;2023-05-02T10:32:21;19.80;99.90
16625;DHT22;8426;48.496;9.098;2023-05-02T10:37:26;19.60;99.90
16625;DHT22;8426;48.496;9.098;2023-05-02T10:42:37;19.80;99.90
16625;DHT22;8426;48.496;9.098;2023-05-02T10:47:43;19.10;99.90
16625;DHT22;8426;48.496;9.098;2023-05-02T10:52:53;19.80;99.90
16625;DHT22;8426;48.496;9.098;2023-05-02T10:58:19;18.90;99.90
16625;DHT22;8426;48.496;9.098;2023-05-02T11:03:53;18.10;99.90
16625;DHT22;8426;48.496;9.098;2023-05-02T11:09:30;17.60;99.90
16625;DHT22;8426;48.496;9.098;2023-05-02T11:14:55;17.70;99.90
16625;DHT22;8426;48.496;9.098;2023-05-02T11:20:29;17.20;99.90
16625;DHT22;8426;48.496;9.098;2023-05-02T11:25:40;17.00;99.90
16625;DHT22;8426;48.496;9.098;2023-05-02T11:30:44;17.30;99.90
16625;DHT22;8426;48.496;9.098;2023-05-02T11:35:51;17.50;99.90
16625;DHT22;8426;48.496;9.098;2023-05-02T11:40:56;17.90;99.90
16625;DHT22;8426;48.496;9.098;2023-05-02T11:46:00;18.80;99.90
16625;DHT22;8426;48.496;9.098;2023-05-02T11:51:08;18.90;99.90
16625;DHT22;8426;48.496;9.098;2023-05-02T11:56:22;19.20;99.90
16625;DHT22;8426;48.496;9.098;2023-05-02T12:01:27;19.20;99.90
16625;DHT22;8426;48.496;9.098;2023-05-02T12:06:36;18.80;99.90
16625;DHT22;8426;48.496;9.098;2023-05-02T12:11:51;18.20;99.90
16625;DHT22;8426;48.496;9.098;2023-05-02T12:16:55;17.60;99.90
16625;DHT22;8426;48.496;9.098;2023-05-02T12:22:00;17.80;99.90
16625;DHT22;8426;48.496;9.098;2023-05-02T12:27:12;18.90;99.90
16625;DHT22;8426;48.496;9.098;2023-05-02T12:32:27;19.90;99.90
16625;DHT22;8426;48.496;9.098;2023-05-02T12:37:33;20.00;99.90
16625;DHT22;8426;48.496;9.098;2023-05-02T12:42:38;19.10;99.90
16625;DHT22;8426;48.496;9.098;2023-05-02T12:47:44;18.20;99.90
16625;DHT22;8426;48.496;9.098;2023-05-02T12:52:53;17.70;99.90
16625;DHT22;8426;48.496;9.098;2023-05-02T12:58:05;18.00;99.90
16625;DHT22;8426;48.496;9.098;2023-05-02T13:03:15;18.70;99.90
16625;DHT22;8426;48.496;9.098;2023-05-02T13:08:47;19.80;99.90
16625;DHT22;8426;48.496;9.098;2023-05-02T13:13:59;20.30;99.90
16625;DHT22;8426;48.496;9.098;2023-05-02T13:19:08;20.60;99.90
16625;DHT22;8426;48.496;9.098;2023-05-02T13:24:20;20.80;99.90
16625;DHT22;8426;48.496;9.098;2023-05-02T13:29:27;19.40;99.90
16625;DHT22;8426;48.496;9.098;2023-05-02T13:34:33;17.60;99.90
16625;DHT22;8426;48.496;9.098;2023-05-02T13:39:38;16.40;99.90
16625;DHT22;8426;48.496;9.098;2023-05-02T13:44:47;15.20;99.90
16625;DHT22;8426;48.496;9.098;2023-05-02T13:49:52;15.40;99.90
16625;DHT22;8426;48.496;9.098;2023-05-02T13:55:00;15.90;99.90
16625;DHT22;8426;48.496;9.098;2023-05-02T14:00:08;16.30;99.90
16625;DHT22;8426;48.496;9.098;2023-05-02T14:05:12;17.10;99.90
16625;DHT22;8426;48.496;9.098;2023-05-02T14:10:18;17.80;99.90
16625;DHT22;8426;48.496;9.098;2023-05-02T14:15:31;18.40;99.90
16625;DHT22;8426;48.496;9.098;2023-05-02T14:20:49;18.00;99.90
16625;DHT22;8426;48.496;9.098;2023-05-02T14:25:56;17.80;99.90
16625;DHT22;8426;48.496;9.098;2023-05-02T14:30:59;17.60;99.90
16625;DHT22;8426;48.496;9.098;2023-05-02T14:36:04;17.50;99.90
16625;DHT22;8426;48.496;9.098;2023-05-02T14:41:09;17.40;99.90
16625;DHT22;8426;48.496;9.098;2023-05-02T14:46:13;17.20;99.90
16625;DHT22;8426;48.496;9.098;2023-05-02T14:51:16;16.90;99.90
16625;DHT22;8426;48.496;9.098;2023-05-02T14:56:21;16.60;99.90
16625;DHT22;8426;48.496;9.098;2023-05-02T15:01:29;16.40;99.90
16625;DHT22;8426;48.496;9.098;2023-05-02T15:06:39;16.40;99.90
16625;DHT22;8426;48.496;9.098;2023-05-02T15:11:46;16.10;99.90
16625;DHT22;8426;48.496;9.098;2023-05-02T15:16:57;15.90;99.90
16625;DHT22;8426;48.496;9.098;2023-05-02T15:22:00;15.70;99.90
16625;DHT22;8426;48.496;9.098;2023-05-02T15:27:05;15.70;99.90
16625;DHT22;8426;48.496;9.098;2023-05-02T15:32:11;15.90;99.90
16625;DHT22;8426;48.496;9.098;2023-05-02T15:37:17;15.80;99.90
16625;DHT22;8426;48.496;9.098;2023-05-02T15:42:45;15.80;99.90
16625;DHT22;8426;48.496;9.098;2023-05-02T15:47:57;15.80;99.90
16625;DHT22;8426;48.496;9.098;2023-05-02T15:53:06;15.50;99.90
16625;DHT22;8426;48.496;9.098;2023-05-02T15:58:11;15.40;99.90
16625;DHT22;8426;48.496;9.098;2023-05-02T16:03:15;15.10;99.90
16625;DHT22;8426;48.496;9.098;2023-05-02T16:08:18;14.90;99.90
16625;DHT22;8426;48.496;9.098;2023-05-02T16:13:24;14.80;99.90
16625;DHT22;8426;48.496;9.098;2023-05-02T16:18:30;14.80;99.90
16625;DHT22;8426;48.496;9.098;2023-05-02T16:23:33;14.60;99.90
16625;DHT22;8426;48.496;9.098;2023-05-02T16:28:40;14.60;99.90
16625;DHT22;8426;48.496;9.098;2023-05-02T16:33:46;14.60;99.90
16625;DHT22;8426;48.496;9.098;2023-05-02T16:38:50;14.80;99.90
16625;DHT22;8426;48.496;9.098;2023-05-02T16:43:56;14.70;99.90
16625;DHT22;8426;48.496;9.098;2023-05-02T16:49:06;14.80;99.90
16625;DHT22;8426;48.496;9.098;2023-05-02T16:54:12;14.90;99.90
16625;DHT22;8426;48.496;9.098;2023-05-02T16:59:18;14.90;99.90
16625;DHT22;8426;48.496;9.098;2023-05-02T17:04:22;15.00;99.90
16625;DHT22;8426;48.496;9.098;2023-05-02T17:09:27;14.80;99.90
16625;DHT22;8426;48.496;9.098;2023-05-02T17:14:33;14.80;99.90
16625;DHT22;8426;48.496;9.098;2023-05-02T17:19:37;14.70;99.90
16625;DHT22;8426;48.496;9.098;2023-05-02T17:24:41;14.60;99.90
16625;DHT22;8426;48.496;9.098;2023-05-02T17:29:48;14.50;99.90
16625;DHT22;8426;48.496;9.098;2023-05-02T17:34:51;14.40;99.90
16625;DHT22;8426;48.496;9.098;2023-05-02T17:39:59;14.30;99.90
16625;DHT22;8426;48.496;9.098;2023-05-02T17:45:12;14.30;99.90
16625;DHT22;8426;48.496;9.098;2023-05-02T17:50:17;14.20;99.90
16625;DHT22;8426;48.496;9.098;2023-05-02T17:55:21;14.00;99.90
16625;DHT22;8426;48.496;9.098;2023-05-02T18:00:26;13.90;99.90
16625;DHT22;8426;48.496;9.098;2023-05-02T18:05:36;13.70;99.90
16625;DHT22;8426;48.496;9.098;2023-05-02T18:10:41;13.50;99.90
16625;DHT22;8426;48.496;9.098;2023-05-02T18:15:55;13.30;99.90
16625;DHT22;8426;48.496;9.098;2023-05-02T18:21:00;13.10;99.90
16625;DHT22;8426;48.496;9.098;2023-05-02T18:26:10;12.90;99.90
16625;DHT22;8426;48.496;9.098;2023-05-02T18:31:19;12.70;99.90
16625;DHT22;8426;48.496;9.098;2023-05-02T18:36:25;12.60;99.90
16625;DHT22;8426;48.496;9.098;2023-05-02T18:41:29;12.30;99.90
16625;DHT22;8426;48.496;9.098;2023-05-02T18:46:38;12.00;99.90
16625;DHT22;8426;48.496;9.098;2023-05-02T18:51:42;11.80;99.90
16625;DHT22;8426;48.496;9.098;2023-05-02T18:56:45;11.70;99.90
16625;DHT22;8426;48.496;9.098;2023-05-02T19:01:51;11.60;99.90
16625;DHT22;8426;48.496;9.098;2023-05-02T19:06:57;11.50;99.90
16625;DHT22;8426;48.496;9.098;2023-05-02T19:12:01;11.40;99.90
16625;DHT22;8426;48.496;9.098;2023-05-02T19:17:07;11.30;99.90
16625;DHT22;8426;48.496;9.098;2023-05-02T19:22:11;11.20;99.90
16625;DHT22;8426;48.496;9.098;2023-05-02T19:27:18;11.00;99.90
16625;DHT22;8426;48.496;9.098;2023-05-02T19:32:24;11.00;99.90
16625;DHT22;8426;48.496;9.098;2023-05-02T19:37:29;10.80;99.90
16625;DHT22;8426;48.496;9.098;2023-05-02T19:42:34;10.70;99.90
16625;DHT22;8426;48.496;9.098;2023-05-02T19:47:44;10.60;99.90
16625;DHT22;8426;48.496;9.098;2023-05-02T19:52:49;10.50;99.90
16625;DHT22;8426;48.496;9.098;2023-05-02T19:57:52;10.40;99.90
16625;DHT22;8426;48.496;9.098;2023-05-02T20:02:57;10.30;99.90
16625;DHT22;8426;48.496;9.098;2023-05-02T20:08:01;10.10;99.90
16625;DHT22;8426;48.496;9.098;2023-05-02T20:13:09;10.00;99.90
16625;DHT22;8426;48.496;9.098;2023-05-02T20:18:15;9.90;99.90
16625;DHT22;8426;48.496;9.098;2023-05-02T20:23:20;9.80;99.90
16625;DHT22;8426;48.496;9.098;2023-05-02T20:28:26;9.60;99.90
16625;DHT22;8426;48.496;9.098;2023-05-02T20:33:34;9.30;99.90
16625;DHT22;8426;48.496;9.098;2023-05-02T20:38:46;8.80;99.90
16625;DHT22;8426;48.496;9.098;2023-05-02T20:43:51;8.50;99.90
16625;DHT22;8426;48.496;9.098;2023-05-02T20:48:57;8.30;99.90
16625;DHT22;8426;48.496;9.098;2023-05-02T20:54:01;8.20;99.90
16625;DHT22;8426;48.496;9.098;2023-05-02T20:59:06;8.00;99.90
16625;DHT22;8426;48.496;9.098;2023-05-02T21:04:13;7.90;99.90
16625;DHT22;8426;48.496;9.098;2023-05-02T21:09:18;7.90;99.90
16625;DHT22;8426;48.496;9.098;2023-05-02T21:14:23;7.90;99.90
16625;DHT22;8426;48.496;9.098;2023-05-02T21:19:28;7.90;99.90
16625;DHT22;8426;48.496;9.098;2023-05-02T21:24:34;7.90;99.90
16625;DHT22;8426;48.496;9.098;2023-05-02T21:29:37;8.00;99.90
16625;DHT22;8426;48.496;9.098;2023-05-02T21:34:42;8.20;99.90
16625;DHT22;8426;48.496;9.098;2023-05-02T21:39:46;8.30;99.90
16625;DHT22;8426;48.496;9.098;2023-05-02T21:44:49;8.20;99.90
16625;DHT22;8426;48.496;9.098;2023-05-02T21:49:54;8.10;99.90
16625;DHT22;8426;48.496;9.098;2023-05-02T21:54:58;7.90;99.90
16625;DHT22;8426;48.496;9.098;2023-05-02T22:00:03;7.80;99.90
16625;DHT22;8426;48.496;9.098;2023-05-02T22:05:36;7.60;99.90
16625;DHT22;8426;48.496;9.098;2023-05-02T22:10:42;7.50;99.90
16625;DHT22;8426;48.496;9.098;2023-05-02T22:15:46;7.20;99.90
16625;DHT22;8426;48.496;9.098;2023-05-02T22:20:53;7.00;99.90
16625;DHT22;8426;48.496;9.098;2023-05-02T22:25:58;6.90;99.90
16625;DHT22;8426;48.496;9.098;2023-05-02T22:31:01;6.80;99.90
16625;DHT22;8426;48.496;9.098;2023-05-02T22:36:09;6.70;99.90
16625;DHT22;8426;48.496;9.098;2023-05-02T22:41:14;6.70;99.90
16625;DHT22;8426;48.496;9.098;2023-05-02T22:46:17;6.60;99.90
16625;DHT22;8426;48.496;9.098;2023-05-02T22:51:23;6.50;99.90
16625;DHT22;8426;48.496;9.098;2023-05-02T22:56:26;6.40;99.90
16625;DHT22;8426;48.496;9.098;2023-05-02T23:01:30;6.40;99.90
16625;DHT22;8426;48.496;9.098;2023-05-02T23:06:35;6.30;99.90
16625;DHT22;8426;48.496;9.098;2023-05-02T23:11:39;6.30;99.90
16625;DHT22;8426;48.496;9.098;2023-05-02T23:16:42;6.30;99.90
16625;DHT22;8426;48.496;9.098;2023-05-02T23:21:49;6.20;99.90
16625;DHT22;8426;48.496;9.098;2023-05-02T23:26:52;6.10;99.90
16625;DHT22;8426;48.496;9.098;2023-05-02T23:31:56;6.10;99.90
16625;DHT22;8426;48.496;9.098;2023-05-02T23:37:02;6.00;99.90
16625;DHT22;8426;48.496;9.098;2023-05-02T23:42:07;5.90;99.90
16625;DHT22;8426;48.496;9.098;2023-05-02T23:47:11;5.80;99.90
16625;DHT22;8426;48.496;9.098;2023-05-02T23:52:16;6.00;99.90
16625;DHT22;8426;48.496;9.098;2023-05-02T23:57:19;6.20;99.90
